Time;durP1;ratioP1;P1;durP2;ratioP2;P2;SDS_P1;SDS_P2;PMS_P1;PMS_P2;Temp;Humidity;BMP_temperature;BMP_pressure;BME280_temperature;BME280_humidity;BME280_pressure;Samples;Min_cycle;Max_cycle;Signal;HPM_P1;HPM_P2
2023/12/10 00:02:56;;;;;;;61.00;32.30;;;;;;;2.03;84.66;99440.13;131293;1251;108463;-86
2023/12/10 00:06:02;;;;;;;64.90;35.30;;;;;;;2.06;84.70;99439.70;131354;1251;106457;-85
2023/12/10 00:09:08;;;;;;;58.10;31.30;;;;;;;2.11;84.55;99443.33;131348;1253;108688;-85
2023/12/10 00:12:13;;;;;;;49.00;27.40;;;;;;;2.17;84.58;99444.64;131353;1253;107111;-84
2023/12/10 00:15:29;;;;;;;66.20;34.90;;;;;;;2.20;84.44;99444.95;131360;1251;107460;-83
2023/12/10 00:18:35;;;;;;;72.20;34.60;;;;;;;2.23;84.38;99439.77;131372;1251;106580;-83
2023/12/10 00:21:41;;;;;;;68.40;33.40;;;;;;;2.23;84.57;99432.20;131297;1256;108671;-85
2023/12/10 00:24:46;;;;;;;62.50;31.90;;;;;;;2.22;84.32;99438.43;131395;1253;109148;-85
2023/12/10 00:27:52;;;;;;;54.80;29.10;;;;;;;2.21;84.61;99438.37;131353;1253;107801;-84
2023/12/10 00:31:00;;;;;;;87.80;42.10;;;;;;;2.19;84.37;99439.20;131380;1253;106700;-85
2023/12/10 00:34:06;;;;;;;53.90;28.00;;;;;;;2.16;84.36;99441.34;131260;1251;106426;-84
2023/12/10 00:37:12;;;;;;;53.00;27.10;;;;;;;2.12;84.51;99444.15;131405;1251;106974;-84
2023/12/10 00:40:18;;;;;;;91.00;38.80;;;;;;;2.12;84.62;99448.20;131432;1253;106775;-84
2023/12/10 00:43:24;;;;;;;81.20;35.00;;;;;;;2.16;84.61;99439.06;131386;1253;107827;-84
2023/12/10 00:46:29;;;;;;;101.20;49.80;;;;;;;2.24;84.64;99440.02;131377;1254;106062;-84
2023/12/10 00:49:35;;;;;;;98.20;47.50;;;;;;;2.30;84.41;99438.48;131342;1251;107834;-84
2023/12/10 00:52:41;;;;;;;70.90;35.40;;;;;;;2.33;84.53;99442.27;131377;1250;108643;-85
2023/12/10 00:55:47;;;;;;;64.00;31.60;;;;;;;2.35;84.30;99440.90;131420;1254;108493;-85
2023/12/10 00:58:52;;;;;;;68.00;33.70;;;;;;;2.35;84.45;99442.70;131366;1253;107890;-85
2023/12/10 01:02:00;;;;;;;61.40;30.80;;;;;;;2.32;84.32;99438.85;131357;1253;107413;-84
2023/12/10 01:05:07;;;;;;;59.50;30.80;;;;;;;2.29;84.46;99429.48;131341;1263;107716;-85
2023/12/10 01:08:13;;;;;;;65.40;32.50;;;;;;;2.24;84.39;99432.50;131449;1269;107668;-85
2023/12/10 01:11:19;;;;;;;49.30;28.10;;;;;;;2.15;84.38;99431.64;131242;1253;291913;-84
2023/12/10 01:14:25;;;;;;;47.00;25.90;;;;;;;2.10;84.50;99437.83;131404;1253;106972;-85
2023/12/10 01:17:30;;;;;;;48.20;27.50;;;;;;;2.10;84.53;99441.70;131303;1264;106790;-85
2023/12/10 01:20:37;;;;;;;54.80;28.80;;;;;;;2.13;84.67;99446.47;131318;1257;107687;-85
2023/12/10 01:23:43;;;;;;;49.10;25.90;;;;;;;2.18;84.58;99447.00;131355;1253;108475;-84
2023/12/10 01:26:48;;;;;;;67.20;32.60;;;;;;;2.24;84.63;99451.98;131301;1251;108472;-84
2023/12/10 01:29:54;;;;;;;59.60;30.60;;;;;;;2.31;84.55;99455.84;131377;1272;107201;-84
2023/12/10 01:33:00;;;;;;;63.80;32.50;;;;;;;2.34;84.46;99449.95;131399;1253;108183;-84
2023/12/10 01:36:08;;;;;;;49.30;26.70;;;;;;;2.35;84.22;99442.54;131591;1253;107812;-84
2023/12/10 01:39:14;;;;;;;45.50;24.60;;;;;;;2.33;84.41;99435.29;131400;1254;107827;-84
2023/12/10 01:42:20;;;;;;;51.70;27.90;;;;;;;2.32;84.34;99428.36;131510;1251;107749;-84
2023/12/10 01:45:26;;;;;;;51.00;28.10;;;;;;;2.29;84.30;99427.34;131340;1253;108694;-85
2023/12/10 01:48:33;;;;;;;49.30;27.80;;;;;;;2.26;84.26;99426.88;131355;1254;107726;-85
2023/12/10 01:51:41;;;;;;;47.80;26.60;;;;;;;2.25;84.33;99428.03;131398;1253;108467;-86
2023/12/10 01:54:47;;;;;;;50.60;27.50;;;;;;;2.21;84.39;99431.15;131394;1254;109312;-85
2023/12/10 01:57:53;;;;;;;50.20;26.50;;;;;;;2.18;84.38;99428.59;131449;1254;106494;-84
2023/12/10 02:00:59;;;;;;;48.50;25.70;;;;;;;2.19;84.43;99417.95;131425;1250;108193;-85
2023/12/10 02:04:05;;;;;;;48.90;26.90;;;;;;;2.22;84.41;99404.55;131341;1254;107057;-84
2023/12/10 02:07:11;;;;;;;51.60;27.20;;;;;;;2.27;84.53;99399.95;131488;1251;108677;-85
2023/12/10 02:10:17;;;;;;;47.70;25.60;;;;;;;2.31;84.50;99394.88;131391;1251;107508;-85
2023/12/10 02:13:24;;;;;;;59.20;31.20;;;;;;;2.32;84.35;99398.20;131423;1253;108679;-84
2023/12/10 02:16:29;;;;;;;170.90;81.40;;;;;;;2.30;84.24;99403.73;131407;1258;108626;-83
2023/12/10 02:19:35;;;;;;;63.90;32.90;;;;;;;2.27;84.32;99398.73;131424;1257;106758;-84
2023/12/10 02:22:53;;;;;;;52.90;28.40;;;;;;;2.25;84.32;99391.85;131440;1251;108778;-84
2023/12/10 02:25:59;;;;;;;55.70;29.30;;;;;;;2.22;84.34;99387.88;131544;1250;106710;-84
2023/12/10 02:29:05;;;;;;;47.60;25.50;;;;;;;2.17;84.37;99383.75;131321;1263;106582;-85
2023/12/10 02:32:11;;;;;;;51.70;26.40;;;;;;;2.16;84.44;99384.73;131315;1251;107700;-84
2023/12/10 02:35:17;;;;;;;61.80;29.30;;;;;;;2.16;84.42;99377.16;131352;1251;106983;-84
2023/12/10 02:38:23;;;;;;;60.40;28.10;;;;;;;2.19;84.42;99371.84;131266;1254;107331;-84
2023/12/10 02:41:29;;;;;;;58.90;28.60;;;;;;;2.24;84.23;99364.63;131407;1251;106273;-84
2023/12/10 02:44:34;;;;;;;66.10;31.20;;;;;;;2.29;84.34;99358.00;131415;1256;107683;-84
2023/12/10 02:47:40;;;;;;;235.90;78.60;;;;;;;2.32;84.18;99357.27;131489;1263;106636;-85
2023/12/10 02:50:46;;;;;;;139.00;58.60;;;;;;;2.32;84.32;99359.73;131400;1251;107654;-85
2023/12/10 02:53:51;;;;;;;80.20;36.80;;;;;;;2.32;84.28;99354.08;131495;1263;106311;-84
2023/12/10 02:56:57;;;;;;;56.50;30.10;;;;;;;2.31;84.12;99350.15;131506;1254;107788;-84
2023/12/10 03:00:03;;;;;;;53.30;29.30;;;;;;;2.26;84.18;99345.49;131382;1253;107801;-84
2023/12/10 03:03:09;;;;;;;53.70;30.00;;;;;;;2.20;84.16;99345.30;131408;1253;108418;-85
2023/12/10 03:06:15;;;;;;;50.80;28.70;;;;;;;2.16;84.40;99347.33;131487;1253;107741;-85
2023/12/10 03:09:20;;;;;;;56.00;29.90;;;;;;;2.15;84.24;99349.89;131350;1251;107708;-85
2023/12/10 03:12:26;;;;;;;62.50;29.90;;;;;;;2.11;84.05;99348.61;131302;1251;108569;-85
2023/12/10 03:15:32;;;;;;;45.60;24.40;;;;;;;2.08;84.21;99347.10;131297;1253;107681;-86
2023/12/10 03:18:38;;;;;;;68.10;32.70;;;;;;;2.09;84.38;99349.08;131375;1254;105594;-85
2023/12/10 03:21:43;;;;;;;50.00;28.50;;;;;;;2.14;84.32;99350.14;131411;1254;108065;-85
2023/12/10 03:24:49;;;;;;;53.00;28.10;;;;;;;2.15;84.21;99356.52;131292;1257;107736;-85
2023/12/10 03:27:55;;;;;;;69.10;31.80;;;;;;;2.17;84.03;99360.40;131299;1253;106645;-85
2023/12/10 03:31:01;;;;;;;70.70;32.60;;;;;;;2.14;84.22;99355.17;131446;1254;107937;-85
2023/12/10 03:34:06;;;;;;;104.10;40.90;;;;;;;2.11;84.13;99351.35;131386;1253;106573;-85
2023/12/10 03:37:12;;;;;;;78.10;33.80;;;;;;;2.08;83.94;99348.79;131419;1251;108742;-85
2023/12/10 03:40:18;;;;;;;80.60;34.90;;;;;;;2.04;83.90;99346.16;131486;1253;106653;-85
2023/12/10 03:43:23;;;;;;;112.60;41.50;;;;;;;2.04;84.30;99348.45;131390;1254;107162;-85
2023/12/10 03:46:29;;;;;;;129.70;44.60;;;;;;;2.03;84.20;99345.21;131337;1256;107765;-84
2023/12/10 03:49:35;;;;;;;56.00;26.50;;;;;;;2.03;84.05;99339.77;131436;1251;109215;-84
2023/12/10 03:52:40;;;;;;;53.80;28.30;;;;;;;2.08;84.11;99337.95;131417;1254;106666;-84
2023/12/10 03:55:46;;;;;;;49.90;27.30;;;;;;;2.11;84.07;99336.84;131463;1254;108733;-84
2023/12/10 03:58:52;;;;;;;53.50;28.80;;;;;;;2.12;83.94;99328.86;131325;1254;106832;-85
2023/12/10 04:01:57;;;;;;;51.80;27.40;;;;;;;2.11;83.99;99318.20;131316;1251;106586;-83
2023/12/10 04:05:04;;;;;;;54.90;29.50;;;;;;;2.08;83.67;99317.11;131392;1254;106639;-84
2023/12/10 04:08:10;;;;;;;55.10;29.00;;;;;;;2.03;83.77;99315.02;131402;1251;106212;-83
2023/12/10 04:11:23;;;;;;;49.60;26.90;;;;;;;1.96;83.42;99310.30;131429;1254;108534;-84
2023/12/10 04:14:29;;;;;;;54.60;29.40;;;;;;;1.86;83.52;99306.66;131446;1254;106435;-85
2023/12/10 04:17:35;;;;;;;51.80;27.40;;;;;;;1.75;83.49;99308.45;131349;1251;107486;-84
2023/12/10 04:20:42;;;;;;;89.90;45.00;;;;;;;1.63;83.60;99307.94;131368;1251;106745;-85
2023/12/10 04:23:48;;;;;;;50.50;26.60;;;;;;;1.53;83.74;99305.73;131374;1254;108636;-84
2023/12/10 04:26:54;;;;;;;49.60;24.10;;;;;;;1.46;83.89;99302.81;131445;1253;109376;-85
2023/12/10 04:29:59;;;;;;;71.70;30.40;;;;;;;1.42;83.71;99307.16;131462;1253;108465;-84
2023/12/10 04:33:05;;;;;;;53.50;26.60;;;;;;;1.39;83.92;99322.21;131363;1253;107844;-85
2023/12/10 04:36:12;;;;;;;63.00;29.30;;;;;;;1.36;83.73;99322.63;131238;1253;107848;-84
2023/12/10 04:39:19;;;;;;;46.40;25.10;;;;;;;1.33;83.60;99326.95;131355;1253;108025;-84
2023/12/10 04:42:24;;;;;;;49.60;26.80;;;;;;;1.27;83.66;99325.11;131375;1254;108580;-84
2023/12/10 04:45:30;;;;;;;45.30;24.90;;;;;;;1.20;83.59;99331.46;131322;1253;108299;-84
2023/12/10 04:48:36;;;;;;;49.40;27.50;;;;;;;1.11;83.57;99335.73;131360;1253;108422;-84
2023/12/10 04:51:41;;;;;;;45.30;24.20;;;;;;;1.06;83.56;99336.33;131457;1251;106839;-84
2023/12/10 04:54:47;;;;;;;44.60;23.80;;;;;;;0.99;83.56;99332.48;131349;1253;106746;-85
2023/12/10 04:57:53;;;;;;;47.70;23.60;;;;;;;0.94;83.65;99342.84;131275;1251;107760;-84
2023/12/10 05:00:59;;;;;;;41.50;22.00;;;;;;;0.87;83.61;99350.70;131363;1263;107787;-84
2023/12/10 05:04:04;;;;;;;41.40;22.10;;;;;;;0.85;83.68;99357.68;131374;1257;108345;-84
2023/12/10 05:07:10;;;;;;;36.50;19.00;;;;;;;0.89;83.59;99351.08;131679;1251;106714;-90
2023/12/10 05:10:16;;;;;;;43.80;21.70;;;;;;;0.95;83.53;99350.14;131790;1253;107005;-91
2023/12/10 05:13:21;;;;;;;50.10;25.30;;;;;;;0.98;83.46;99359.48;131629;1253;106262;-89
2023/12/10 05:16:27;;;;;;;46.00;24.30;;;;;;;1.00;83.47;99365.17;131634;1251;106993;-86
2023/12/10 05:19:33;;;;;;;40.50;21.80;;;;;;;1.01;83.44;99359.66;131556;1249;107089;-87
2023/12/10 05:22:39;;;;;;;38.20;21.50;;;;;;;1.01;83.46;99351.04;131432;1251;106878;-85
2023/12/10 05:25:44;;;;;;;38.30;21.30;;;;;;;1.00;83.22;99342.05;131395;1251;106775;-87
2023/12/10 05:28:50;;;;;;;38.80;21.20;;;;;;;0.96;83.24;99350.52;131457;1263;108388;-86
2023/12/10 05:31:56;;;;;;;42.90;23.30;;;;;;;0.95;83.19;99345.39;131385;1251;108320;-86
2023/12/10 05:35:02;;;;;;;43.00;23.00;;;;;;;0.93;83.26;99349.58;131503;1253;108387;-88
2023/12/10 05:38:09;;;;;;;40.80;22.70;;;;;;;0.86;83.14;99353.94;131689;1251;107742;-87
2023/12/10 05:41:15;;;;;;;43.80;23.60;;;;;;;0.76;83.37;99354.80;131423;1251;108643;-87
2023/12/10 05:44:20;;;;;;;47.70;23.70;;;;;;;0.71;83.36;99352.92;131448;1254;107746;-87
2023/12/10 05:47:26;;;;;;;43.50;22.70;;;;;;;0.68;83.45;99342.30;131488;1251;108956;-88
2023/12/10 05:50:32;;;;;;;45.30;22.80;;;;;;;0.69;83.45;99341.48;131545;1254;109320;-87
2023/12/10 05:53:37;;;;;;;37.60;19.70;;;;;;;0.72;83.39;99340.22;131453;1251;107203;-83
2023/12/10 05:56:43;;;;;;;41.20;21.60;;;;;;;0.76;83.14;99344.98;131324;1254;106875;-83
2023/12/10 05:59:49;;;;;;;42.10;22.10;;;;;;;0.80;82.92;99352.98;131358;1254;107693;-82
2023/12/10 06:02:54;;;;;;;40.10;20.80;;;;;;;0.80;82.90;99350.35;131539;1254;106697;-83
2023/12/10 06:06:00;;;;;;;43.50;23.20;;;;;;;0.77;82.88;99358.36;131359;1263;108020;-83
2023/12/10 06:09:06;;;;;;;41.30;23.10;;;;;;;0.72;82.58;99365.27;131282;1251;108840;-83
2023/12/10 06:12:11;;;;;;;40.90;21.60;;;;;;;0.68;82.77;99362.28;131390;1251;107624;-83
2023/12/10 06:15:18;;;;;;;39.80;22.20;;;;;;;0.64;82.82;99364.48;131425;1253;108657;-82
2023/12/10 06:18:23;;;;;;;41.50;21.60;;;;;;;0.61;82.64;99374.16;131374;1251;106785;-81
2023/12/10 06:21:30;;;;;;;43.10;22.40;;;;;;;0.53;82.57;99385.75;131396;1253;107410;-82
2023/12/10 06:24:35;;;;;;;42.50;21.90;;;;;;;0.45;82.66;99382.64;131364;1256;106300;-82
2023/12/10 06:27:41;;;;;;;43.00;23.00;;;;;;;0.41;82.75;99392.73;131555;1251;108601;-90
2023/12/10 06:30:47;;;;;;;44.90;21.90;;;;;;;0.34;82.72;99389.72;131785;1253;108782;-88
2023/12/10 06:33:53;;;;;;;42.00;21.50;;;;;;;0.33;82.82;99390.83;131650;1253;108858;-90
2023/12/10 06:36:58;;;;;;;41.90;20.30;;;;;;;0.34;82.71;99388.98;131669;1251;107512;-84
2023/12/10 06:40:05;;;;;;;37.20;18.60;;;;;;;0.39;82.56;99388.84;132138;1249;106785;-88
2023/12/10 06:43:11;;;;;;;39.00;20.30;;;;;;;0.44;82.55;99398.77;131813;1251;107851;-86
2023/12/10 06:46:17;;;;;;;37.00;19.60;;;;;;;0.49;82.39;99413.84;131895;1253;106673;-84
2023/12/10 06:49:23;;;;;;;38.60;19.90;;;;;;;0.55;82.26;99415.18;131628;1254;106583;-85
2023/12/10 06:52:28;;;;;;;40.80;20.60;;;;;;;0.56;81.95;99425.22;131798;1250;108730;-85
2023/12/10 06:55:34;;;;;;;38.90;20.50;;;;;;;0.51;81.92;99430.13;131740;1253;107245;-86
2023/12/10 06:58:40;;;;;;;37.70;20.20;;;;;;;0.50;81.99;99434.56;131546;1250;108705;-86
2023/12/10 07:01:46;;;;;;;36.20;19.70;;;;;;;0.48;81.81;99432.77;131495;1250;108660;-88
2023/12/10 07:04:51;;;;;;;36.50;19.80;;;;;;;0.44;81.90;99427.16;131395;1255;106088;-86
2023/12/10 07:07:57;;;;;;;37.30;19.90;;;;;;;0.43;81.94;99429.50;131333;1251;108295;-87
2023/12/10 07:11:05;;;;;;;40.30;20.40;;;;;;;0.41;81.98;99429.45;131515;1251;106354;-87
2023/12/10 07:14:10;;;;;;;37.90;20.60;;;;;;;0.38;82.01;99431.01;131823;1251;107053;-86
2023/12/10 07:17:16;;;;;;;36.80;19.50;;;;;;;0.40;81.96;99434.91;131883;1250;108421;-85
2023/12/10 07:20:22;;;;;;;42.20;21.00;;;;;;;0.40;81.84;99438.48;131448;1251;106127;-86
2023/12/10 07:23:27;;;;;;;40.90;19.90;;;;;;;0.38;81.50;99448.73;131438;1253;106637;-87
2023/12/10 07:26:33;;;;;;;38.90;19.60;;;;;;;0.41;81.90;99446.97;131322;1253;108232;-86
2023/12/10 07:29:39;;;;;;;32.50;17.10;;;;;;;0.52;81.87;99449.14;131445;1251;106428;-87
2023/12/10 07:32:45;;;;;;;36.90;19.90;;;;;;;0.61;81.64;99457.06;131553;1265;107072;-86
2023/12/10 07:35:51;;;;;;;38.50;20.30;;;;;;;0.68;81.36;99462.33;131654;1250;107031;-86
2023/12/10 07:38:56;;;;;;;34.70;19.40;;;;;;;0.74;81.36;99466.48;131787;1250;108642;-87
2023/12/10 07:42:02;;;;;;;38.20;19.60;;;;;;;0.78;81.06;99461.46;131941;1250;106929;-86
2023/12/10 07:45:10;;;;;;;63.80;29.10;;;;;;;0.82;81.16;99460.82;131699;1254;106685;-88
2023/12/10 07:48:16;;;;;;;53.70;25.00;;;;;;;0.86;81.12;99455.13;131920;1250;107574;-87
2023/12/10 07:51:23;;;;;;;40.60;19.60;;;;;;;0.89;81.03;99453.15;131696;1250;108711;-89
2023/12/10 07:54:29;;;;;;;44.90;21.40;;;;;;;0.86;80.87;99457.06;131614;1251;108012;-89
2023/12/10 07:57:37;;;;;;;38.90;19.70;;;;;;;0.86;80.92;99466.86;131396;1251;106968;-86
2023/12/10 08:00:47;;;;;;;33.80;17.80;;;;;;;0.86;80.99;99468.45;131438;1251;107511;-88
2023/12/10 08:03:52;;;;;;;40.90;21.00;;;;;;;0.89;81.05;99476.76;131523;1251;107241;-89
2023/12/10 08:06:58;;;;;;;35.70;19.40;;;;;;;0.92;81.07;99481.14;131579;1251;106796;-89
2023/12/10 08:10:05;;;;;;;35.60;19.90;;;;;;;0.91;80.90;99476.13;131455;1253;107713;-86
2023/12/10 08:13:10;;;;;;;37.00;19.30;;;;;;;0.91;81.04;99473.64;131583;1250;106758;-87
2023/12/10 08:16:16;;;;;;;36.10;18.80;;;;;;;0.94;80.82;99474.64;131633;1250;106632;-85
2023/12/10 08:19:22;;;;;;;38.30;19.60;;;;;;;0.98;80.63;99466.70;131413;1251;106403;-88
2023/12/10 08:22:28;;;;;;;33.70;16.90;;;;;;;1.03;80.80;99465.45;131632;1250;108704;-86
2023/12/10 08:25:33;;;;;;;34.50;18.90;;;;;;;1.13;80.63;99467.19;131636;1251;108585;-85
2023/12/10 08:28:39;;;;;;;37.00;19.70;;;;;;;1.25;80.82;99468.76;131345;1253;106666;-85
2023/12/10 08:31:45;;;;;;;38.80;20.60;;;;;;;1.38;80.81;99474.61;131414;1253;108668;-85
2023/12/10 08:34:51;;;;;;;37.40;20.00;;;;;;;1.50;80.51;99474.42;131640;1250;107003;-81
2023/12/10 08:37:56;;;;;;;39.00;19.20;;;;;;;1.60;80.42;99474.73;131548;1250;107583;-83
2023/12/10 08:41:02;;;;;;;40.50;22.30;;;;;;;1.66;79.93;99478.14;131468;1250;108587;-83
2023/12/10 08:44:09;;;;;;;35.60;18.90;;;;;;;1.70;80.00;99480.63;131499;1250;107784;-83
2023/12/10 08:47:14;;;;;;;34.10;19.00;;;;;;;1.73;80.31;99470.77;131420;1250;107398;-83
2023/12/10 08:50:20;;;;;;;40.70;21.80;;;;;;;1.79;80.19;99468.40;131315;1249;106771;-82
2023/12/10 08:53:26;;;;;;;59.70;31.70;;;;;;;1.76;79.94;99471.08;131525;1251;108578;-82
2023/12/10 08:56:32;;;;;;;58.20;30.20;;;;;;;1.72;79.74;99470.67;131288;1251;108389;-82
2023/12/10 08:59:37;;;;;;;51.80;27.00;;;;;;;1.74;79.98;99471.95;131408;1251;106308;-82
2023/12/10 09:02:43;;;;;;;50.90;26.50;;;;;;;1.75;79.93;99467.83;131345;1250;108454;-83
2023/12/10 09:05:50;;;;;;;42.00;22.40;;;;;;;1.78;79.82;99469.55;131456;1251;108023;-83
2023/12/10 09:08:56;;;;;;;41.10;21.90;;;;;;;1.82;79.90;99468.02;131378;1250;107780;-82
2023/12/10 09:12:02;;;;;;;43.50;22.10;;;;;;;1.85;79.80;99466.73;131342;1253;106589;-83
2023/12/10 09:15:10;;;;;;;42.10;22.50;;;;;;;1.84;79.71;99457.69;131461;1251;107801;-83
2023/12/10 09:18:16;;;;;;;43.80;23.20;;;;;;;1.87;79.71;99449.35;131375;1250;106306;-83
2023/12/10 09:21:22;;;;;;;36.10;20.30;;;;;;;1.93;79.61;99454.50;131395;1253;106716;-81
2023/12/10 09:24:28;;;;;;;38.60;21.00;;;;;;;1.93;79.58;99453.16;131388;1250;106359;-82
2023/12/10 09:27:33;;;;;;;45.70;24.10;;;;;;;1.90;79.29;99461.90;131300;1254;106803;-83
2023/12/10 09:30:39;;;;;;;37.30;18.90;;;;;;;1.98;79.23;99461.20;131586;1251;107677;-81
2023/12/10 09:33:48;;;;;;;41.30;21.80;;;;;;;2.05;79.31;99463.40;131458;1250;107296;-83
2023/12/10 09:36:54;;;;;;;38.20;20.50;;;;;;;2.16;79.39;99464.36;131326;1250;107610;-82
2023/12/10 09:39:59;;;;;;;40.10;21.50;;;;;;;2.27;79.29;99463.52;131348;1251;106680;-83
2023/12/10 09:43:05;;;;;;;40.20;21.70;;;;;;;2.36;78.99;99463.33;131344;1249;108553;-83
2023/12/10 09:46:12;;;;;;;37.30;19.90;;;;;;;2.42;79.06;99464.98;131630;1249;106790;-81
2023/12/10 09:49:19;;;;;;;37.80;20.00;;;;;;;2.46;79.02;99467.24;131237;1250;106692;-80
2023/12/10 09:52:25;;;;;;;38.30;20.70;;;;;;;2.48;78.67;99472.05;131792;1251;108576;-84
2023/12/10 09:55:31;;;;;;;34.50;18.90;;;;;;;2.45;78.75;99471.10;131710;1250;106342;-84
2023/12/10 09:58:36;;;;;;;36.80;19.90;;;;;;;2.47;78.71;99476.20;131727;1252;107573;-82
2023/12/10 10:01:49;;;;;;;37.00;19.10;;;;;;;2.47;78.75;99468.61;131564;1250;108773;-84
2023/12/10 10:04:56;;;;;;;37.30;21.30;;;;;;;2.50;78.61;99456.92;131499;1250;107758;-83
2023/12/10 10:08:02;;;;;;;39.40;20.90;;;;;;;2.53;78.46;99456.67;131493;1266;107376;-82
2023/12/10 10:11:07;;;;;;;38.80;20.50;;;;;;;2.48;78.09;99457.64;131720;1250;106993;-83
2023/12/10 10:14:14;;;;;;;41.90;21.90;;;;;;;2.48;78.50;99453.94;131401;1265;108559;-84
2023/12/10 10:17:27;;;;;;;39.90;21.10;;;;;;;2.52;78.58;99456.80;131510;1250;106857;-84
2023/12/10 10:20:33;;;;;;;39.30;20.80;;;;;;;2.56;78.59;99457.73;131488;1253;108137;-84
2023/12/10 10:23:39;;;;;;;37.10;19.90;;;;;;;2.60;78.48;99463.77;131589;1251;108512;-86
2023/12/10 10:26:45;;;;;;;38.30;20.70;;;;;;;2.59;78.21;99460.51;131532;1253;109289;-83
2023/12/10 10:29:53;;;;;;;36.40;19.80;;;;;;;2.59;78.33;99459.21;131495;1254;107443;-84
2023/12/10 10:32:59;;;;;;;36.00;20.10;;;;;;;2.56;77.85;99456.71;131433;1250;106648;-84
2023/12/10 10:36:06;;;;;;;206.30;78.10;;;;;;;2.52;78.18;99453.45;131484;1249;108652;-84
2023/12/10 10:39:11;;;;;;;143.30;53.10;;;;;;;2.55;78.07;99440.56;131398;1250;105498;-83
2023/12/10 10:42:18;;;;;;;337.40;114.80;;;;;;;2.57;77.77;99441.50;131853;1250;107794;-86
2023/12/10 10:45:26;;;;;;;409.50;138.60;;;;;;;2.57;78.06;99443.92;131936;1249;107609;-84
2023/12/10 10:48:35;;;;;;;412.00;141.70;;;;;;;2.63;78.27;99451.94;131474;1251;107869;-85
2023/12/10 10:51:40;;;;;;;130.90;49.20;;;;;;;2.67;78.06;99450.67;131299;1253;108581;-82
2023/12/10 10:54:47;;;;;;;130.80;45.90;;;;;;;2.73;78.11;99444.28;131436;1251;106736;-83
2023/12/10 10:57:54;;;;;;;118.70;43.80;;;;;;;2.80;77.85;99437.19;131483;1251;107547;-84
2023/12/10 11:01:00;;;;;;;82.50;35.30;;;;;;;2.88;78.04;99438.99;131417;1263;107153;-83
2023/12/10 11:04:07;;;;;;;51.80;24.30;;;;;;;2.94;77.71;99437.44;131458;1249;106413;-83
2023/12/10 11:07:16;;;;;;;59.80;30.90;;;;;;;3.00;77.49;99438.06;131425;1252;107613;-83
2023/12/10 11:10:21;;;;;;;89.20;34.50;;;;;;;2.98;77.64;99433.64;131538;1250;106885;-85
2023/12/10 11:13:44;;;;;;;109.40;43.20;;;;;;;2.96;77.30;99440.79;131502;1250;108645;-84
2023/12/10 11:16:54;;;;;;;;;;;;;;;2.94;77.33;99439.42;131381;1250;106571;-83
2023/12/10 11:20:00;;;;;;;123.20;55.70;;;;;;;2.90;77.50;99444.29;131316;1253;106734;-82
2023/12/10 11:23:08;;;;;;;75.90;35.40;;;;;;;2.88;77.63;99445.71;131543;1251;108140;-83
2023/12/10 11:26:14;;;;;;;83.60;32.70;;;;;;;2.85;77.44;99451.74;131362;1250;107610;-82
2023/12/10 11:29:20;;;;;;;201.60;69.20;;;;;;;2.81;77.44;99450.67;131447;1250;107598;-82
2023/12/10 11:32:26;;;;;;;130.90;45.10;;;;;;;2.76;77.46;99450.50;131371;1250;108668;-83
2023/12/10 11:35:32;;;;;;;250.60;81.30;;;;;;;2.72;77.48;99447.48;131369;1256;107716;-83
2023/12/10 11:38:38;;;;;;;150.00;47.10;;;;;;;2.70;77.53;99439.21;131319;1251;106235;-82
2023/12/10 11:41:45;;;;;;;79.10;28.80;;;;;;;2.66;77.49;99437.96;131415;1250;108042;-83
2023/12/10 11:44:51;;;;;;;229.30;57.60;;;;;;;2.63;77.31;99439.96;131426;1250;107621;-82
2023/12/10 11:47:57;;;;;;;154.20;51.00;;;;;;;2.56;77.66;99441.54;131360;1253;108368;-81
2023/12/10 11:51:04;;;;;;;555.20;214.90;;;;;;;2.49;77.70;99443.30;131345;1250;108726;-82
2023/12/10 11:54:11;;;;;;;165.50;55.90;;;;;;;2.46;77.86;99449.87;131408;1251;107355;-80
2023/12/10 11:57:18;;;;;;;423.80;112.10;;;;;;;2.47;78.07;99442.30;131332;1254;105722;-81
2023/12/10 12:00:24;;;;;;;210.10;50.70;;;;;;;2.52;78.24;99443.09;131409;1253;108283;-81
2023/12/10 12:03:32;;;;;;;80.90;28.70;;;;;;;2.60;78.23;99445.78;131376;1250;106683;-83
2023/12/10 12:06:43;;;;;;;108.90;34.00;;;;;;;2.72;78.13;99445.58;131251;1254;106747;-82
2023/12/10 12:09:49;;;;;;;87.40;34.80;;;;;;;2.79;78.12;99448.50;131356;1250;107701;-81
2023/12/10 12:12:55;;;;;;;109.90;43.40;;;;;;;2.84;78.11;99449.21;131315;1250;108492;-82
2023/12/10 12:16:00;;;;;;;320.10;112.40;;;;;;;2.86;78.06;99446.23;131450;1253;108631;-81
2023/12/10 12:19:06;;;;;;;152.60;53.90;;;;;;;2.90;78.15;99440.23;131319;1250;106986;-80
2023/12/10 12:22:12;;;;;;;169.90;51.40;;;;;;;2.91;77.97;99448.09;131465;1250;107091;-82
2023/12/10 12:25:18;;;;;;;95.30;34.30;;;;;;;2.92;78.47;99457.85;131348;1265;107061;-81
2023/12/10 12:28:23;;;;;;;129.20;45.90;;;;;;;2.91;78.41;99460.68;131316;1251;106463;-81
2023/12/10 12:31:29;;;;;;;86.90;36.30;;;;;;;2.94;78.45;99459.63;131229;1250;107168;-80
2023/12/10 12:34:35;;;;;;;70.50;30.40;;;;;;;2.94;78.29;99455.23;131083;1251;108728;-81
2023/12/10 12:37:41;;;;;;;63.80;30.30;;;;;;;2.93;78.40;99458.13;131284;1250;106847;-80
2023/12/10 12:40:46;;;;;;;72.50;37.40;;;;;;;2.94;78.59;99455.00;131394;1253;107607;-81
2023/12/10 12:43:52;;;;;;;68.60;34.10;;;;;;;2.94;78.67;99455.92;131327;1251;107665;-80
2023/12/10 12:46:58;;;;;;;113.00;50.50;;;;;;;2.85;78.51;99468.03;131241;1251;108427;-81
2023/12/10 12:50:04;;;;;;;85.50;38.90;;;;;;;2.80;78.64;99466.20;131476;1251;106716;-82
2023/12/10 12:53:09;;;;;;;112.10;42.20;;;;;;;2.82;78.97;99470.44;131657;1254;108611;-80
2023/12/10 12:56:16;;;;;;;86.00;37.30;;;;;;;2.92;78.78;99477.50;131347;1251;108445;-81
2023/12/10 12:59:22;;;;;;;93.60;39.80;;;;;;;3.00;78.81;99477.21;131612;1250;107588;-81
2023/12/10 13:02:28;;;;;;;81.20;36.80;;;;;;;3.05;78.78;99474.55;132043;1250;108514;-81
2023/12/10 13:05:34;;;;;;;61.80;30.60;;;;;;;3.08;78.61;99480.78;131844;1251;108530;-82
2023/12/10 13:08:39;;;;;;;54.50;27.80;;;;;;;3.10;78.63;99472.35;131763;1253;106660;-82
2023/12/10 13:11:45;;;;;;;51.00;28.10;;;;;;;3.09;78.76;99476.81;131482;1250;186929;-81
2023/12/10 13:14:52;;;;;;;50.20;29.20;;;;;;;3.12;78.64;99474.50;131612;1253;106883;-84
2023/12/10 13:17:58;;;;;;;53.60;31.00;;;;;;;3.07;78.57;99469.58;131815;1250;106874;-82
2023/12/10 13:21:04;;;;;;;63.10;34.00;;;;;;;3.01;78.71;99463.45;131510;1249;106529;-85
2023/12/10 13:24:10;;;;;;;57.70;30.00;;;;;;;2.97;78.74;99462.48;131489;1250;106540;-84
2023/12/10 13:27:17;;;;;;;130.10;67.60;;;;;;;2.88;78.54;99472.94;131335;1250;107807;-84
2023/12/10 13:30:23;;;;;;;107.90;54.90;;;;;;;2.80;78.78;99468.00;131393;1253;106445;-80
2023/12/10 13:33:29;;;;;;;75.80;38.40;;;;;;;2.75;78.86;99464.08;131504;1253;106320;-82
2023/12/10 13:36:35;;;;;;;74.60;36.10;;;;;;;2.73;78.93;99462.80;131337;1251;108880;-80
2023/12/10 13:39:41;;;;;;;55.90;26.30;;;;;;;2.74;79.06;99464.89;131556;1250;108759;-82
2023/12/10 13:42:46;;;;;;;47.90;25.70;;;;;;;2.79;78.89;99468.59;131302;1253;108416;-81
2023/12/10 13:45:52;;;;;;;52.40;25.40;;;;;;;2.80;78.97;99472.55;131427;1251;105762;-83
2023/12/10 13:48:58;;;;;;;44.40;24.00;;;;;;;2.83;78.93;99477.16;131343;1251;106500;-84
2023/12/10 13:52:04;;;;;;;41.50;23.70;;;;;;;2.85;78.85;99474.53;131384;1253;106946;-81
2023/12/10 13:55:10;;;;;;;44.50;24.90;;;;;;;2.85;78.90;99476.84;131433;1254;108695;-81
2023/12/10 13:58:16;;;;;;;45.40;25.90;;;;;;;2.82;78.73;99476.95;131358;1250;107703;-80
2023/12/10 14:01:22;;;;;;;48.20;26.20;;;;;;;2.80;78.86;99478.66;131465;1250;107527;-82
2023/12/10 14:04:28;;;;;;;57.60;29.80;;;;;;;2.75;78.96;99480.98;131318;1254;106263;-81
2023/12/10 14:07:34;;;;;;;50.20;27.80;;;;;;;2.68;79.11;99486.59;131367;1251;107751;-82